createdAt,value
2018-05-11T00:01:08.059Z,33.67
2018-05-11T00:03:36.935Z,32.33
2018-05-11T00:06:06.316Z,34.73
2018-05-11T00:08:34.124Z,33.20
2018-05-11T00:11:01.935Z,33.53
2018-05-11T00:13:29.924Z,41.23
2018-05-11T00:15:57.644Z,40.50
2018-05-11T00:18:27.287Z,42.60
2018-05-11T00:20:55.659Z,33.13
2018-05-11T00:23:23.615Z,42.80
2018-05-11T00:25:52.199Z,40.50
2018-05-11T00:28:21.653Z,56.83
2018-05-11T00:30:49.567Z,61.10
2018-05-11T00:33:18.240Z,58.83
2018-05-11T00:35:46.165Z,67.57
2018-05-11T00:38:13.848Z,56.53
2018-05-11T00:40:42.953Z,56.80
2018-05-11T00:43:11.013Z,54.93
2018-05-11T00:45:39.617Z,62.57
2018-05-11T00:48:07.459Z,63.30
2018-05-11T00:50:35.060Z,71.67
2018-05-11T00:53:03.447Z,62.37
2018-05-11T00:55:42.916Z,74.07
2018-05-11T00:58:11.714Z,65.43
2018-05-11T01:00:41.374Z,59.83
2018-05-11T01:03:09.380Z,67.03
2018-05-11T01:05:37.154Z,63.83
2018-05-11T01:08:04.917Z,71.80
2018-05-11T01:10:32.605Z,76.93
2018-05-11T01:13:00.307Z,71.33
2018-05-11T01:15:28.086Z,66.50
2018-05-11T01:17:55.748Z,64.67
2018-05-11T01:20:23.626Z,68.40
2018-05-11T01:22:52.058Z,65.03
2018-05-11T01:25:19.622Z,70.77
2018-05-11T01:27:47.626Z,84.27
2018-05-11T01:30:15.261Z,67.27
2018-05-11T01:32:43.048Z,64.10
2018-05-11T01:35:11.294Z,64.73
2018-05-11T01:37:39.072Z,60.20
2018-05-11T01:40:06.724Z,64.45
2018-05-11T01:42:34.424Z,52.10
2018-05-11T01:45:02.217Z,49.43
2018-05-11T01:47:30.040Z,56.27
2018-05-11T01:49:58.039Z,51.30
2018-05-11T01:52:25.792Z,56.93
2018-05-11T01:54:53.653Z,55.20
2018-05-11T01:57:21.442Z,55.47
2018-05-11T01:59:50.127Z,52.67
2018-05-11T02:02:19.635Z,51.43
2018-05-11T02:04:48.346Z,46.40
2018-05-11T02:07:16.138Z,54.27
2018-05-11T02:09:44.720Z,47.60
2018-05-11T02:12:12.478Z,71.97
2018-05-11T02:14:40.340Z,53.20
2018-05-11T02:17:08.179Z,56.43
2018-05-11T02:19:37.219Z,49.43
2018-05-11T02:22:05.225Z,52.60
2018-05-11T02:24:34.045Z,48.90
2018-05-11T02:27:02.619Z,59.57
2018-05-11T02:29:31.161Z,62.03
2018-05-11T02:31:58.812Z,69.17
2018-05-11T02:34:26.462Z,71.27
2018-05-11T02:36:54.428Z,59.83
2018-05-11T02:39:22.128Z,72.23
2018-05-11T02:41:49.908Z,60.20
2018-05-11T02:44:17.506Z,73.30
2018-05-11T02:46:46.021Z,75.47
2018-05-11T02:49:13.829Z,65.17
2018-05-11T02:51:41.693Z,60.47
2018-05-11T02:54:11.103Z,57.10
2018-05-11T02:56:39.803Z,63.50
2018-05-11T02:59:08.294Z,63.73
2018-05-11T03:01:36.893Z,55.70
2018-05-11T03:04:07.061Z,49.13
2018-05-11T03:06:35.669Z,56.17
2018-05-11T03:09:05.022Z,57.60
2018-05-11T03:11:34.012Z,52.83
2018-05-11T03:14:02.479Z,48.27
2018-05-11T03:16:30.456Z,47.83
2018-05-11T03:18:58.551Z,51.73
2018-05-11T03:21:26.363Z,51.17
2018-05-11T03:23:55.473Z,46.40
2018-05-11T03:26:25.169Z,52.63
2018-05-11T03:28:54.140Z,44.00
2018-05-11T03:31:24.592Z,63.40
2018-05-11T03:33:53.605Z,62.90
2018-05-11T03:36:21.759Z,54.77
2018-05-11T03:38:50.055Z,54.83
2018-05-11T03:41:19.261Z,49.30
2018-05-11T03:43:50.643Z,70.20
2018-05-11T03:46:19.266Z,54.00
2018-05-11T03:48:47.261Z,72.10
2018-05-11T03:51:16.880Z,57.70
2018-05-11T03:53:46.546Z,49.90
2018-05-11T03:56:15.097Z,59.00
2018-05-11T03:58:44.524Z,59.65
2018-05-11T04:01:24.796Z,57.80
2018-05-11T04:06:47.602Z,86.90
2018-05-11T04:09:16.226Z,82.40
2018-05-11T04:11:44.493Z,88.30
2018-05-11T04:14:12.668Z,84.40
2018-05-11T04:16:40.319Z,83.60
2018-05-11T04:24:03.461Z,78.70
2018-05-11T04:26:31.880Z,72.00
2018-05-11T04:29:00.829Z,77.17
2018-05-11T04:31:29.451Z,76.17
2018-05-11T04:34:00.646Z,76.60
2018-05-11T04:36:28.971Z,79.10
2018-05-11T04:38:58.417Z,75.07
2018-05-11T04:41:26.591Z,77.13
2018-05-11T04:43:56.753Z,84.07
2018-05-11T04:46:24.497Z,86.57
2018-05-11T04:48:53.338Z,79.93
2018-05-11T04:51:22.088Z,94.77
2018-05-11T04:53:50.596Z,92.53
2018-05-11T04:56:20.416Z,79.33
2018-05-11T04:58:49.901Z,86.87
2018-05-11T05:01:18.673Z,90.07
2018-05-11T05:03:46.454Z,90.90
2018-05-11T05:06:14.219Z,87.00
2018-05-11T05:08:43.241Z,98.80
2018-05-11T05:11:11.915Z,98.27
2018-05-11T05:13:40.611Z,86.70
2018-05-11T05:16:09.530Z,97.23
2018-05-11T05:18:39.404Z,94.50
2018-05-11T05:21:08.565Z,91.10
2018-05-11T05:23:36.747Z,85.07
2018-05-11T05:26:05.293Z,98.03
2018-05-11T05:28:33.991Z,89.13
2018-05-11T05:31:02.641Z,86.53
2018-05-11T05:33:32.873Z,108.57
2018-05-11T05:36:00.659Z,83.20
2018-05-11T05:38:30.246Z,84.43
2018-05-11T05:40:58.885Z,91.47
2018-05-11T05:43:28.551Z,84.93
2018-05-11T05:45:57.268Z,88.37
2018-05-11T05:48:26.043Z,97.20
2018-05-11T05:50:57.737Z,109.33
2018-05-11T05:53:25.897Z,103.03
2018-05-11T05:55:54.649Z,95.43
2018-05-11T05:58:23.783Z,97.63
2018-05-11T06:00:52.519Z,85.53
2018-05-11T06:03:21.688Z,107.37
2018-05-11T06:05:50.958Z,101.07
2018-05-11T06:08:19.151Z,104.47
2018-05-11T06:10:47.715Z,94.00
2018-05-11T06:13:16.640Z,83.60
2018-05-11T06:15:44.861Z,89.80
2018-05-11T06:18:13.603Z,91.63
2018-05-11T06:20:42.323Z,90.53
2018-05-11T06:23:10.196Z,114.97
2018-05-11T06:25:38.846Z,106.07
2018-05-11T06:28:06.646Z,92.07
2018-05-11T06:30:35.223Z,98.87
2018-05-11T06:33:05.440Z,99.33
2018-05-11T06:35:34.913Z,91.67
2018-05-11T06:38:04.048Z,105.77
2018-05-11T06:40:35.141Z,107.37
2018-05-11T06:43:03.696Z,84.57
2018-05-11T06:45:32.420Z,73.20
2018-05-11T06:48:01.662Z,83.70
2018-05-11T06:50:32.784Z,82.17
2018-05-11T06:53:02.563Z,86.47
2018-05-11T06:55:32.213Z,85.20
2018-05-11T06:58:02.085Z,87.70
2018-05-11T07:00:30.723Z,96.03
2018-05-11T07:02:59.236Z,102.27
2018-05-11T07:05:28.616Z,75.50
2018-05-11T07:07:58.056Z,98.07
2018-05-11T07:10:27.803Z,96.67
2018-05-11T07:12:56.391Z,108.33
2018-05-11T07:15:25.534Z,94.60
2018-05-11T07:17:55.919Z,90.63
2018-05-11T07:20:25.289Z,87.33
2018-05-11T07:22:55.509Z,72.37
2018-05-11T07:25:25.362Z,96.83
2018-05-11T07:27:54.885Z,99.53
2018-05-11T07:30:23.536Z,91.23
2018-05-11T07:32:53.383Z,87.87
2018-05-11T07:35:21.997Z,71.47
2018-05-11T07:37:53.264Z,82.70
2018-05-11T07:40:22.431Z,78.50
2018-05-11T07:42:51.753Z,73.63
2018-05-11T07:45:21.879Z,86.17
2018-05-11T07:47:51.885Z,90.50
2018-05-11T07:50:22.109Z,77.60
2018-05-11T07:52:52.799Z,66.50
2018-05-11T07:55:22.292Z,65.23
2018-05-11T07:57:51.479Z,73.10
2018-05-11T08:00:20.321Z,70.17
2018-05-11T08:02:49.461Z,65.40
2018-05-11T08:05:18.229Z,63.17
2018-05-11T08:07:46.774Z,75.33
2018-05-11T08:10:14.785Z,55.17
2018-05-11T08:12:43.544Z,59.80
2018-05-11T08:15:11.416Z,69.40
2018-05-11T08:17:40.646Z,63.47
2018-05-11T08:20:09.401Z,67.03
2018-05-11T08:22:37.426Z,60.70
2018-05-11T08:25:05.545Z,88.17
2018-05-11T08:27:34.351Z,68.53
2018-05-11T08:30:02.190Z,71.37
2018-05-11T08:32:30.614Z,62.70
2018-05-11T08:34:58.623Z,68.87
2018-05-11T08:37:26.767Z,60.37
2018-05-11T08:39:55.748Z,61.50
2018-05-11T08:42:24.364Z,68.03
2018-05-11T08:44:53.120Z,72.07
2018-05-11T08:47:21.854Z,71.00
2018-05-11T08:49:49.662Z,63.60
2018-05-11T08:52:18.431Z,61.27
2018-05-11T08:54:46.329Z,70.70
2018-05-11T08:57:15.044Z,67.10
2018-05-11T08:59:45.053Z,57.20
2018-05-11T09:02:13.152Z,72.73
2018-05-11T09:04:42.444Z,65.53
2018-05-11T09:07:11.566Z,69.73
2018-05-11T09:09:39.716Z,63.97
2018-05-11T09:12:09.172Z,70.43
2018-05-11T09:14:37.099Z,66.50
2018-05-11T09:17:05.187Z,58.67
2018-05-11T09:19:33.084Z,70.77
2018-05-11T09:22:00.935Z,71.47
2018-05-11T09:24:28.842Z,74.03
2018-05-11T09:26:57.323Z,59.77
2018-05-11T09:29:27.018Z,70.33
2018-05-11T09:31:54.962Z,67.90
2018-05-11T09:34:22.993Z,79.20
2018-05-11T09:36:50.728Z,59.73
2018-05-11T09:39:19.117Z,51.13
2018-05-11T09:41:47.253Z,64.53
2018-05-11T09:44:15.483Z,50.70
2018-05-11T09:46:43.792Z,52.07
2018-05-11T09:49:11.390Z,58.80
2018-05-11T09:51:38.925Z,62.63
2018-05-11T09:54:06.446Z,54.77
2018-05-11T09:56:34.782Z,52.90
2018-05-11T09:59:02.297Z,52.40
2018-05-11T10:01:30.565Z,52.43
2018-05-11T10:03:58.835Z,44.30
2018-05-11T10:06:27.143Z,48.67
2018-05-11T10:08:54.645Z,42.37
2018-05-11T10:11:22.202Z,49.73
2018-05-11T10:13:49.794Z,42.63
2018-05-11T10:16:17.332Z,45.53
2018-05-11T10:18:44.869Z,45.27
2018-05-11T10:21:12.422Z,46.73
2018-05-11T10:23:39.940Z,51.10
2018-05-11T10:26:09.160Z,52.43
2018-05-11T10:28:36.677Z,46.07
2018-05-11T10:31:04.265Z,56.13
2018-05-11T10:33:32.588Z,46.90
2018-05-11T10:36:00.105Z,42.20
2018-05-11T10:38:28.425Z,46.33
2018-05-11T10:40:56.466Z,42.20
2018-05-11T10:43:24.791Z,48.40
2018-05-11T10:45:52.298Z,44.23
2018-05-11T10:48:20.612Z,50.63
2018-05-11T10:50:48.132Z,40.70
2018-05-11T10:53:16.411Z,48.70
2018-05-11T10:55:44.842Z,39.03
2018-05-11T10:58:12.378Z,39.40
2018-05-11T11:00:40.092Z,49.97
2018-05-11T11:03:07.721Z,44.33
2018-05-11T11:05:35.293Z,48.67
2018-05-11T11:08:02.896Z,41.17
2018-05-11T11:10:31.229Z,41.13
2018-05-11T11:12:58.809Z,39.20
2018-05-11T11:15:26.737Z,39.10
2018-05-11T11:17:54.333Z,37.47
2018-05-11T11:20:21.921Z,37.90
2018-05-11T11:22:49.512Z,38.80
2018-05-11T11:25:17.115Z,32.73
2018-05-11T11:27:44.686Z,36.97
2018-05-11T11:30:12.322Z,37.53
2018-05-11T11:32:39.916Z,34.97
2018-05-11T11:35:07.440Z,32.63
2018-05-11T11:37:34.978Z,33.63
2018-05-11T11:40:02.536Z,35.33
2018-05-11T11:42:30.912Z,35.90
2018-05-11T11:44:59.231Z,31.87
2018-05-11T11:47:26.862Z,34.87
2018-05-11T11:49:54.538Z,40.87
2018-05-11T11:52:22.572Z,38.53
2018-05-11T11:54:50.877Z,38.30
2018-05-11T11:57:18.462Z,35.13
2018-05-11T11:59:46.041Z,32.90
2018-05-11T12:02:13.612Z,39.90
2018-05-11T12:04:41.240Z,42.47
2018-05-11T12:07:08.833Z,38.93
2018-05-11T12:09:36.462Z,38.87
2018-05-11T12:12:04.044Z,38.90
2018-05-11T12:14:31.606Z,37.70
2018-05-11T12:16:59.156Z,34.30
2018-05-11T12:19:26.677Z,33.70
2018-05-11T12:21:55.072Z,33.57
2018-05-11T12:24:22.687Z,33.97
2018-05-11T12:26:50.319Z,35.73
2018-05-11T12:29:17.901Z,35.80
2018-05-11T12:31:45.495Z,36.93
2018-05-11T12:34:13.919Z,32.10
2018-05-11T12:36:41.483Z,33.63
2018-05-11T12:39:09.106Z,34.37
2018-05-11T12:41:37.484Z,28.93
2018-05-11T12:44:05.825Z,35.47
2018-05-11T12:46:33.443Z,38.40
2018-05-11T12:49:00.947Z,32.73
2018-05-11T12:51:28.543Z,29.83
2018-05-11T12:53:56.887Z,32.73
2018-05-11T12:56:24.663Z,33.60
2018-05-11T12:58:52.251Z,30.20
2018-05-11T13:01:20.586Z,35.37
2018-05-11T13:03:48.144Z,33.27
2018-05-11T13:06:15.752Z,33.30
2018-05-11T13:08:44.157Z,33.53
2018-05-11T13:11:11.756Z,32.60
2018-05-11T13:13:39.280Z,33.73
2018-05-11T13:16:06.800Z,37.57
2018-05-11T13:18:34.347Z,36.40
2018-05-11T13:21:01.877Z,43.30
2018-05-11T13:23:29.413Z,39.73
2018-05-11T13:25:57.320Z,36.13
2018-05-11T13:28:25.037Z,36.70
2018-05-11T13:30:53.451Z,30.33
2018-05-11T13:33:21.682Z,32.27
2018-05-11T13:35:50.031Z,33.37
2018-05-11T13:38:17.669Z,38.33
2018-05-11T13:40:45.234Z,33.63
2018-05-11T13:43:12.814Z,31.00
2018-05-11T13:45:41.020Z,31.23
2018-05-11T13:48:08.649Z,34.87
2018-05-11T13:50:36.164Z,27.87
2018-05-11T13:53:03.686Z,37.30
2018-05-11T13:55:31.214Z,39.90
2018-05-11T13:57:58.721Z,32.27
2018-05-11T14:00:26.231Z,31.07
2018-05-11T14:02:53.724Z,29.47
2018-05-11T14:05:21.245Z,33.17
2018-05-11T14:07:48.766Z,30.43
2018-05-11T14:10:16.372Z,31.07
2018-05-11T14:12:45.374Z,28.07
2018-05-11T14:15:12.882Z,29.93
2018-05-11T14:17:40.387Z,29.80
2018-05-11T14:20:07.925Z,29.23
2018-05-11T14:22:36.210Z,27.20
2018-05-11T14:25:03.813Z,34.10
2018-05-11T14:27:31.747Z,27.40
2018-05-11T14:30:01.017Z,28.60
2018-05-11T14:32:28.879Z,29.53
2018-05-11T14:34:57.628Z,28.77
2018-05-11T14:37:26.138Z,32.80
2018-05-11T14:39:54.708Z,28.30
2018-05-11T14:42:23.195Z,24.23
2018-05-11T14:44:52.599Z,24.37
2018-05-11T14:47:20.589Z,21.27
2018-05-11T14:49:49.543Z,22.70
2018-05-11T14:52:18.339Z,25.13
2018-05-11T14:54:46.704Z,24.10
2018-05-11T14:57:14.882Z,30.57
2018-05-11T14:59:43.206Z,21.93
2018-05-11T15:02:11.488Z,26.40
2018-05-11T15:04:39.564Z,33.90
2018-05-11T15:07:08.196Z,27.87
2018-05-11T15:09:35.985Z,25.63
2018-05-11T15:12:04.928Z,21.73
2018-05-11T15:14:33.187Z,30.80
2018-05-11T15:17:02.035Z,27.77
2018-05-11T15:19:29.962Z,31.57
2018-05-11T15:21:59.089Z,26.77
2018-05-11T15:24:27.048Z,32.63
2018-05-11T15:26:55.103Z,29.20
2018-05-11T15:29:23.846Z,32.13
2018-05-11T15:31:52.081Z,28.17
2018-05-11T15:34:20.057Z,26.77
2018-05-11T15:36:50.128Z,30.97
2018-05-11T15:39:17.935Z,27.90
2018-05-11T15:41:45.453Z,28.83
2018-05-11T15:44:13.204Z,32.63
2018-05-11T15:46:40.725Z,28.10
2018-05-11T15:49:08.332Z,27.87
2018-05-11T15:51:35.870Z,36.23
2018-05-11T15:54:04.141Z,32.43
2018-05-11T15:56:31.651Z,30.43
2018-05-11T15:58:59.768Z,26.83
2018-05-11T16:01:27.503Z,35.30
2018-05-11T16:03:55.652Z,36.17
2018-05-11T16:06:23.661Z,30.33
2018-05-11T16:08:51.362Z,34.43
2018-05-11T16:11:19.063Z,32.60
2018-05-11T16:13:47.393Z,35.13
2018-05-11T16:16:15.292Z,34.47
2018-05-11T16:18:44.271Z,37.40
2018-05-11T16:21:11.912Z,37.20
2018-05-11T16:23:39.745Z,37.97
2018-05-11T16:26:07.571Z,35.30
2018-05-11T16:28:35.135Z,31.43
2018-05-11T16:31:02.693Z,54.40
2018-05-11T16:33:31.197Z,33.90
2018-05-11T16:35:59.917Z,42.37
2018-05-11T16:38:28.202Z,34.20
2018-05-11T16:40:56.577Z,39.17
2018-05-11T16:43:25.516Z,36.30
2018-05-11T16:45:53.546Z,35.80
2018-05-11T16:48:21.132Z,33.67
2018-05-11T16:50:50.198Z,34.57
2018-05-11T16:53:19.285Z,38.07
2018-05-11T16:55:47.147Z,37.33
2018-05-11T16:58:15.992Z,36.33
2018-05-11T17:00:43.702Z,40.37
2018-05-11T17:03:12.018Z,43.27
2018-05-11T17:05:39.624Z,45.20
2018-05-11T17:08:07.227Z,56.67
2018-05-11T17:10:34.712Z,47.40
2018-05-11T17:13:02.273Z,51.83
2018-05-11T17:15:29.792Z,45.50
2018-05-11T17:17:58.994Z,50.03
2018-05-11T17:20:27.263Z,48.87
2018-05-11T17:22:56.711Z,47.63
2018-05-11T17:25:24.087Z,43.17
2018-05-11T17:27:51.669Z,45.27
2018-05-11T17:30:19.196Z,46.73
2018-05-11T17:32:46.917Z,49.60
2018-05-11T17:35:14.466Z,51.30
2018-05-11T17:37:42.754Z,47.73
2018-05-11T17:40:11.121Z,49.00
2018-05-11T17:42:38.701Z,49.55
2018-05-11T17:45:06.318Z,51.90
2018-05-11T17:47:35.390Z,50.45
2018-05-11T17:50:02.931Z,52.10
2018-05-11T17:52:33.390Z,61.70
2018-05-11T17:55:01.659Z,59.53
2018-05-11T17:57:29.415Z,56.90
2018-05-11T17:59:57.026Z,54.60
2018-05-11T18:02:24.601Z,64.90
2018-05-11T18:04:52.160Z,60.83
2018-05-11T18:07:19.702Z,60.35
2018-05-11T18:09:47.225Z,56.05
2018-05-11T18:12:14.825Z,60.03
2018-05-11T18:14:43.291Z,58.37
2018-05-11T18:17:11.500Z,67.17
2018-05-11T18:19:39.819Z,61.30
2018-05-11T18:22:07.401Z,61.20
2018-05-11T18:24:34.909Z,65.85
2018-05-11T18:27:03.213Z,74.53
2018-05-11T18:29:30.738Z,70.45
2018-05-11T18:31:58.264Z,67.13
2018-05-11T18:34:25.832Z,72.53
2018-05-11T18:36:53.347Z,74.80
2018-05-11T18:39:21.617Z,73.67
2018-05-11T18:41:49.902Z,73.77
2018-05-11T18:44:17.445Z,67.70
2018-05-11T18:46:45.734Z,84.00
2018-05-11T18:49:14.049Z,77.10
2018-05-11T18:51:41.575Z,75.93
2018-05-11T18:54:10.060Z,80.10
2018-05-11T18:56:37.668Z,71.43
2018-05-11T18:59:05.288Z,71.70
2018-05-11T19:01:33.749Z,76.27
2018-05-11T19:04:02.051Z,70.83
2018-05-11T19:06:29.627Z,72.13
2018-05-11T19:08:57.255Z,74.53
2018-05-11T19:11:25.708Z,66.10
2018-05-11T19:13:53.240Z,68.43
2018-05-11T19:16:20.793Z,74.00
2018-05-11T19:18:48.315Z,75.47
2018-05-11T19:21:16.645Z,67.37
2018-05-11T19:23:44.176Z,65.23
2018-05-11T19:26:11.758Z,57.70
2018-05-11T19:28:40.001Z,63.93
2018-05-11T19:31:08.267Z,66.43
2018-05-11T19:33:36.551Z,63.47
2018-05-11T19:36:04.833Z,68.97
2018-05-11T19:38:33.149Z,67.90
2018-05-11T19:41:00.706Z,66.30
2018-05-11T19:43:28.281Z,59.67
2018-05-11T19:45:56.722Z,59.60
2018-05-11T19:48:25.758Z,64.17
2018-05-11T19:50:54.252Z,69.17
2018-05-11T19:53:21.770Z,60.80
2018-05-11T19:55:50.292Z,64.00
2018-05-11T19:58:17.843Z,58.53
2018-05-11T20:00:45.855Z,57.50
2018-05-11T20:03:13.995Z,60.63
2018-05-11T20:05:42.571Z,66.20
2018-05-11T20:08:10.926Z,59.10
2018-05-11T20:10:38.714Z,68.27
2018-05-11T20:13:06.307Z,63.87
2018-05-11T20:15:35.284Z,75.80
2018-05-11T20:18:03.172Z,67.90
2018-05-11T20:20:32.111Z,72.70
2018-05-11T20:22:59.789Z,71.53
2018-05-11T20:25:27.354Z,66.33
2018-05-11T20:27:55.728Z,69.10
2018-05-11T20:30:23.533Z,64.63
2018-05-11T20:32:51.261Z,57.77
2018-05-11T20:35:18.816Z,59.50
2018-05-11T20:37:46.740Z,65.93
2018-05-11T20:40:15.099Z,68.63
2018-05-11T20:42:44.780Z,62.23
2018-05-11T20:45:12.443Z,62.77
2018-05-11T20:47:39.974Z,63.00
2018-05-11T20:50:07.725Z,70.47
2018-05-11T20:52:35.287Z,65.10
2018-05-11T20:55:03.686Z,74.47
2018-05-11T20:57:31.264Z,59.97
2018-05-11T20:59:58.797Z,63.43
2018-05-11T21:02:27.081Z,56.20
2018-05-11T21:04:55.414Z,61.73
2018-05-11T21:07:23.635Z,68.90
2018-05-11T21:09:51.930Z,76.37
2018-05-11T21:12:19.437Z,69.80
2018-05-11T21:14:46.967Z,74.30
2018-05-11T21:17:14.483Z,59.53
2018-05-11T21:19:42.747Z,75.13
2018-05-11T21:22:10.287Z,66.87
2018-05-11T21:24:38.669Z,62.23
2018-05-11T21:27:06.211Z,64.33
2018-05-11T21:29:33.693Z,71.27
2018-05-11T21:32:01.412Z,74.13
2018-05-11T21:34:28.938Z,71.63
2018-05-11T21:36:57.282Z,71.00
2018-05-11T21:39:24.807Z,73.67
2018-05-11T21:41:52.319Z,64.73
2018-05-11T21:44:19.832Z,77.90
2018-05-11T21:46:47.389Z,76.47
2018-05-11T21:49:14.910Z,88.90
2018-05-11T21:51:42.411Z,79.37
2018-05-11T21:54:09.933Z,81.27
2018-05-11T21:56:37.449Z,86.37
2018-05-11T21:59:04.975Z,90.87
2018-05-11T22:01:33.267Z,96.47
2018-05-11T22:04:00.803Z,94.23
2018-05-11T22:06:29.104Z,109.77
2018-05-11T22:08:56.624Z,90.60
2018-05-11T22:11:25.367Z,118.43
2018-05-11T22:13:52.912Z,89.57
2018-05-11T22:16:20.424Z,78.83
2018-05-11T22:18:48.947Z,79.53
2018-05-11T22:21:17.331Z,110.33
2018-05-11T22:23:45.137Z,78.60
2018-05-11T22:26:12.998Z,78.23
2018-05-11T22:28:40.633Z,95.90
2018-05-11T22:31:08.216Z,95.57
2018-05-11T22:33:36.161Z,114.17
2018-05-11T22:36:04.754Z,116.57
2018-05-11T22:38:32.500Z,121.47
2018-05-11T22:41:00.194Z,131.20
2018-05-11T22:43:27.847Z,147.40
2018-05-11T22:45:57.264Z,107.47
2018-05-11T22:48:25.021Z,108.50
2018-05-11T22:50:52.613Z,101.23
2018-05-11T22:53:22.484Z,81.87
2018-05-11T22:55:51.780Z,124.20
2018-05-11T22:58:21.461Z,114.40
2018-05-11T23:00:50.768Z,139.60
2018-05-11T23:03:19.474Z,153.40
2018-05-11T23:05:50.625Z,105.87
2018-05-11T23:08:20.625Z,141.97
2018-05-11T23:10:50.766Z,149.47
2018-05-11T23:13:20.437Z,170.90
2018-05-11T23:15:48.944Z,138.33
2018-05-11T23:18:17.572Z,103.20
2018-05-11T23:20:46.184Z,109.97
2018-05-11T23:23:15.774Z,114.63
2018-05-11T23:25:45.136Z,133.93
2018-05-11T23:28:15.394Z,164.37
2018-05-11T23:30:44.598Z,181.67
2018-05-11T23:33:14.073Z,163.00
2018-05-11T23:35:44.224Z,116.43
2018-05-11T23:38:14.067Z,170.27
2018-05-11T23:40:43.826Z,140.07
2018-05-11T23:43:13.208Z,100.93
2018-05-11T23:45:42.303Z,86.00
2018-05-11T23:48:12.865Z,152.10
2018-05-11T23:50:42.430Z,106.57
2018-05-11T23:53:10.869Z,102.80
2018-05-11T23:55:40.463Z,113.33
2018-05-11T23:58:09.141Z,175.47
